sensor_id;sensor_type;location;lat;lon;timestamp;temperature;humidity
648;DHT22;75315;49.006;9.060;2024-03-02T00:00:22;5.50;99.90
648;DHT22;75315;49.006;9.060;2024-03-02T00:02:52;5.50;99.90
648;DHT22;75315;49.006;9.060;2024-03-02T00:05:21;5.50;99.90
648;DHT22;75315;49.006;9.060;2024-03-02T00:07:57;5.50;99.90
648;DHT22;75315;49.006;9.060;2024-03-02T00:10:40;5.50;99.90
648;DHT22;75315;49.006;9.060;2024-03-02T00:13:08;5.50;99.90
648;DHT22;75315;49.006;9.060;2024-03-02T00:15:48;5.50;99.90
648;DHT22;75315;49.006;9.060;2024-03-02T00:18:20;5.40;99.90
648;DHT22;75315;49.006;9.060;2024-03-02T00:20:48;5.50;99.90
648;DHT22;75315;49.006;9.060;2024-03-02T00:23:16;5.50;99.90
648;DHT22;75315;49.006;9.060;2024-03-02T00:25:55;5.50;99.90
648;DHT22;75315;49.006;9.060;2024-03-02T00:33:37;5.40;99.90
648;DHT22;75315;49.006;9.060;2024-03-02T00:36:08;5.40;99.90
648;DHT22;75315;49.006;9.060;2024-03-02T00:38:46;5.30;99.90
648;DHT22;75315;49.006;9.060;2024-03-02T00:41:22;5.40;99.90
648;DHT22;75315;49.006;9.060;2024-03-02T00:46:30;5.40;99.90
648;DHT22;75315;49.006;9.060;2024-03-02T00:49:17;5.40;99.90
648;DHT22;75315;49.006;9.060;2024-03-02T00:51:48;5.30;99.90
648;DHT22;75315;49.006;9.060;2024-03-02T00:54:20;5.20;99.90
648;DHT22;75315;49.006;9.060;2024-03-02T00:56:48;5.20;99.90
648;DHT22;75315;49.006;9.060;2024-03-02T00:59:16;5.40;99.90
648;DHT22;75315;49.006;9.060;2024-03-02T01:01:44;5.40;99.90
648;DHT22;75315;49.006;9.060;2024-03-02T01:04:11;5.40;99.90
648;DHT22;75315;49.006;9.060;2024-03-02T01:06:42;5.40;78.30
648;DHT22;75315;49.006;9.060;2024-03-02T01:09:11;5.40;99.90
648;DHT22;75315;49.006;9.060;2024-03-02T01:11:39;5.50;99.90
648;DHT22;75315;49.006;9.060;2024-03-02T01:14:07;5.40;99.90
648;DHT22;75315;49.006;9.060;2024-03-02T01:16:34;5.30;99.90
648;DHT22;75315;49.006;9.060;2024-03-02T01:19:02;5.20;99.90
648;DHT22;75315;49.006;9.060;2024-03-02T01:21:29;5.20;99.90
648;DHT22;75315;49.006;9.060;2024-03-02T01:23:57;5.40;99.90
648;DHT22;75315;49.006;9.060;2024-03-02T01:26:24;5.40;99.90
648;DHT22;75315;49.006;9.060;2024-03-02T01:28:52;5.30;99.90
648;DHT22;75315;49.006;9.060;2024-03-02T01:31:19;5.30;99.90
648;DHT22;75315;49.006;9.060;2024-03-02T01:33:46;5.10;99.90
648;DHT22;75315;49.006;9.060;2024-03-02T01:36:14;5.10;99.90
648;DHT22;75315;49.006;9.060;2024-03-02T01:38:41;5.20;28.10
648;DHT22;75315;49.006;9.060;2024-03-02T01:41:09;5.20;11.40
648;DHT22;75315;49.006;9.060;2024-03-02T01:43:36;5.30;99.90
648;DHT22;75315;49.006;9.060;2024-03-02T01:46:07;5.20;99.90
648;DHT22;75315;49.006;9.060;2024-03-02T01:48:36;5.20;58.00
648;DHT22;75315;49.006;9.060;2024-03-02T01:51:04;5.10;27.10
648;DHT22;75315;49.006;9.060;2024-03-02T01:53:36;5.10;99.90
648;DHT22;75315;49.006;9.060;2024-03-02T01:56:04;5.10;99.90
648;DHT22;75315;49.006;9.060;2024-03-02T01:58:31;5.00;91.90
648;DHT22;75315;49.006;9.060;2024-03-02T02:00:59;4.80;1.00
648;DHT22;75315;49.006;9.060;2024-03-02T02:03:27;4.80;1.00
648;DHT22;75315;49.006;9.060;2024-03-02T02:05:55;4.60;1.00
648;DHT22;75315;49.006;9.060;2024-03-02T02:08:22;4.60;79.20
648;DHT22;75315;49.006;9.060;2024-03-02T02:10:49;4.50;1.00
648;DHT22;75315;49.006;9.060;2024-03-02T02:13:17;4.50;1.00
648;DHT22;75315;49.006;9.060;2024-03-02T02:15:44;4.50;10.00
648;DHT22;75315;49.006;9.060;2024-03-02T02:18:12;4.60;9.00
648;DHT22;75315;49.006;9.060;2024-03-02T02:20:39;4.50;1.00
648;DHT22;75315;49.006;9.060;2024-03-02T02:23:07;4.50;1.00
648;DHT22;75315;49.006;9.060;2024-03-02T02:25:36;4.40;1.00
648;DHT22;75315;49.006;9.060;2024-03-02T02:28:04;4.40;1.00
648;DHT22;75315;49.006;9.060;2024-03-02T02:30:32;4.30;1.00
648;DHT22;75315;49.006;9.060;2024-03-02T02:33:00;4.30;99.90
648;DHT22;75315;49.006;9.060;2024-03-02T02:35:27;4.30;98.90
648;DHT22;75315;49.006;9.060;2024-03-02T02:37:57;4.20;1.00
648;DHT22;75315;49.006;9.060;2024-03-02T02:40:25;4.20;1.00
648;DHT22;75315;49.006;9.060;2024-03-02T02:42:53;4.20;1.00
648;DHT22;75315;49.006;9.060;2024-03-02T02:45:20;4.10;1.00
648;DHT22;75315;49.006;9.060;2024-03-02T02:47:48;4.10;1.00
648;DHT22;75315;49.006;9.060;2024-03-02T02:50:16;4.00;1.00
648;DHT22;75315;49.006;9.060;2024-03-02T02:52:44;4.00;1.00
648;DHT22;75315;49.006;9.060;2024-03-02T02:55:12;4.00;99.90
648;DHT22;75315;49.006;9.060;2024-03-02T02:57:41;4.00;99.90
648;DHT22;75315;49.006;9.060;2024-03-02T03:00:12;3.90;44.90
648;DHT22;75315;49.006;9.060;2024-03-02T03:02:48;4.00;99.90
648;DHT22;75315;49.006;9.060;2024-03-02T03:05:17;4.00;57.10
648;DHT22;75315;49.006;9.060;2024-03-02T03:07:45;4.20;99.90
648;DHT22;75315;49.006;9.060;2024-03-02T03:10:13;4.30;99.90
648;DHT22;75315;49.006;9.060;2024-03-02T03:12:42;4.30;99.90
648;DHT22;75315;49.006;9.060;2024-03-02T03:15:11;4.30;99.90
648;DHT22;75315;49.006;9.060;2024-03-02T03:17:40;4.30;99.90
648;DHT22;75315;49.006;9.060;2024-03-02T03:20:08;4.40;99.90
648;DHT22;75315;49.006;9.060;2024-03-02T03:22:38;4.30;99.90
648;DHT22;75315;49.006;9.060;2024-03-02T03:25:06;4.30;1.00
648;DHT22;75315;49.006;9.060;2024-03-02T03:27:37;4.20;1.00
648;DHT22;75315;49.006;9.060;2024-03-02T03:30:05;4.20;1.00
648;DHT22;75315;49.006;9.060;2024-03-02T03:32:34;4.30;99.90
648;DHT22;75315;49.006;9.060;2024-03-02T03:35:01;4.40;99.90
648;DHT22;75315;49.006;9.060;2024-03-02T03:37:29;4.30;1.00
648;DHT22;75315;49.006;9.060;2024-03-02T03:40:03;4.30;1.00
648;DHT22;75315;49.006;9.060;2024-03-02T03:42:34;4.20;1.00
648;DHT22;75315;49.006;9.060;2024-03-02T03:45:02;4.10;1.00
648;DHT22;75315;49.006;9.060;2024-03-02T03:47:29;4.10;1.00
648;DHT22;75315;49.006;9.060;2024-03-02T03:49:58;4.00;1.00
648;DHT22;75315;49.006;9.060;2024-03-02T03:52:25;4.20;99.90
648;DHT22;75315;49.006;9.060;2024-03-02T03:54:53;4.10;1.00
648;DHT22;75315;49.006;9.060;2024-03-02T03:57:20;3.90;1.00
648;DHT22;75315;49.006;9.060;2024-03-02T03:59:48;4.00;1.00
648;DHT22;75315;49.006;9.060;2024-03-02T04:02:15;4.10;99.90
648;DHT22;75315;49.006;9.060;2024-03-02T04:04:43;4.00;1.00
648;DHT22;75315;49.006;9.060;2024-03-02T04:07:10;4.10;1.00
648;DHT22;75315;49.006;9.060;2024-03-02T04:09:38;4.10;9.30
648;DHT22;75315;49.006;9.060;2024-03-02T04:12:05;4.10;1.00
648;DHT22;75315;49.006;9.060;2024-03-02T04:14:33;4.10;1.00
648;DHT22;75315;49.006;9.060;2024-03-02T04:17:00;4.00;99.80
648;DHT22;75315;49.006;9.060;2024-03-02T04:19:27;3.90;99.90
648;DHT22;75315;49.006;9.060;2024-03-02T04:21:55;3.90;1.00
648;DHT22;75315;49.006;9.060;2024-03-02T04:24:22;3.90;99.90
648;DHT22;75315;49.006;9.060;2024-03-02T04:26:50;3.80;1.00
648;DHT22;75315;49.006;9.060;2024-03-02T04:29:17;3.80;99.90
648;DHT22;75315;49.006;9.060;2024-03-02T04:31:44;3.80;1.00
648;DHT22;75315;49.006;9.060;2024-03-02T04:34:12;3.80;1.00
648;DHT22;75315;49.006;9.060;2024-03-02T04:36:39;3.80;1.00
648;DHT22;75315;49.006;9.060;2024-03-02T04:39:07;3.90;1.00
648;DHT22;75315;49.006;9.060;2024-03-02T04:41:37;3.90;99.90
648;DHT22;75315;49.006;9.060;2024-03-02T04:44:04;3.80;65.90
648;DHT22;75315;49.006;9.060;2024-03-02T04:46:31;3.80;11.50
648;DHT22;75315;49.006;9.060;2024-03-02T04:48:59;3.70;99.90
648;DHT22;75315;49.006;9.060;2024-03-02T04:51:26;3.60;1.00
648;DHT22;75315;49.006;9.060;2024-03-02T04:53:54;3.60;90.80
648;DHT22;75315;49.006;9.060;2024-03-02T04:56:21;3.60;99.90
648;DHT22;75315;49.006;9.060;2024-03-02T04:59:07;3.60;1.00
648;DHT22;75315;49.006;9.060;2024-03-02T05:01:35;3.50;99.90
648;DHT22;75315;49.006;9.060;2024-03-02T05:04:02;3.50;1.00
648;DHT22;75315;49.006;9.060;2024-03-02T05:06:30;3.60;99.90
648;DHT22;75315;49.006;9.060;2024-03-02T05:08:57;3.60;1.00
648;DHT22;75315;49.006;9.060;2024-03-02T05:11:25;3.60;1.00
648;DHT22;75315;49.006;9.060;2024-03-02T05:14:07;3.50;1.00
648;DHT22;75315;49.006;9.060;2024-03-02T05:16:35;3.50;1.00
648;DHT22;75315;49.006;9.060;2024-03-02T05:19:05;3.50;1.00
648;DHT22;75315;49.006;9.060;2024-03-02T05:21:36;3.50;99.90
648;DHT22;75315;49.006;9.060;2024-03-02T05:24:03;3.40;99.90
648;DHT22;75315;49.006;9.060;2024-03-02T05:26:30;3.50;99.90
648;DHT22;75315;49.006;9.060;2024-03-02T05:28:58;3.30;99.90
648;DHT22;75315;49.006;9.060;2024-03-02T05:31:26;3.40;99.90
648;DHT22;75315;49.006;9.060;2024-03-02T05:33:54;3.40;99.90
648;DHT22;75315;49.006;9.060;2024-03-02T05:36:24;3.60;99.90
648;DHT22;75315;49.006;9.060;2024-03-02T05:38:52;3.70;99.90
648;DHT22;75315;49.006;9.060;2024-03-02T05:41:19;3.80;99.90
648;DHT22;75315;49.006;9.060;2024-03-02T05:43:47;3.90;99.90
648;DHT22;75315;49.006;9.060;2024-03-02T05:46:14;4.00;1.00
648;DHT22;75315;49.006;9.060;2024-03-02T05:48:41;4.00;99.90
648;DHT22;75315;49.006;9.060;2024-03-02T05:51:09;4.10;99.90
648;DHT22;75315;49.006;9.060;2024-03-02T05:53:36;4.20;99.90
648;DHT22;75315;49.006;9.060;2024-03-02T05:56:06;4.20;99.90
648;DHT22;75315;49.006;9.060;2024-03-02T05:58:34;4.30;99.90
648;DHT22;75315;49.006;9.060;2024-03-02T06:01:27;4.30;99.90
648;DHT22;75315;49.006;9.060;2024-03-02T06:03:56;4.40;99.90
648;DHT22;75315;49.006;9.060;2024-03-02T06:06:24;4.40;99.90
648;DHT22;75315;49.006;9.060;2024-03-02T06:08:51;4.60;99.90
648;DHT22;75315;49.006;9.060;2024-03-02T06:11:19;4.60;99.90
648;DHT22;75315;49.006;9.060;2024-03-02T06:13:47;4.60;99.90
648;DHT22;75315;49.006;9.060;2024-03-02T06:16:14;4.90;99.90
648;DHT22;75315;49.006;9.060;2024-03-02T06:18:41;4.80;99.90
648;DHT22;75315;49.006;9.060;2024-03-02T06:21:09;4.90;99.90
648;DHT22;75315;49.006;9.060;2024-03-02T06:23:36;4.90;99.90
648;DHT22;75315;49.006;9.060;2024-03-02T06:26:03;4.90;99.90
648;DHT22;75315;49.006;9.060;2024-03-02T06:28:31;4.90;99.90
648;DHT22;75315;49.006;9.060;2024-03-02T06:30:58;5.00;99.90
648;DHT22;75315;49.006;9.060;2024-03-02T06:33:26;5.00;99.90
648;DHT22;75315;49.006;9.060;2024-03-02T06:35:53;5.10;99.90
648;DHT22;75315;49.006;9.060;2024-03-02T06:38:21;5.10;99.90
648;DHT22;75315;49.006;9.060;2024-03-02T06:40:48;5.20;99.90
648;DHT22;75315;49.006;9.060;2024-03-02T06:43:15;5.30;99.90
648;DHT22;75315;49.006;9.060;2024-03-02T06:45:43;5.30;99.90
648;DHT22;75315;49.006;9.060;2024-03-02T06:48:10;5.40;99.10
648;DHT22;75315;49.006;9.060;2024-03-02T06:50:38;5.40;1.00
648;DHT22;75315;49.006;9.060;2024-03-02T06:53:05;5.50;1.00
648;DHT22;75315;49.006;9.060;2024-03-02T06:55:32;5.70;1.00
648;DHT22;75315;49.006;9.060;2024-03-02T06:58:00;5.80;59.10
648;DHT22;75315;49.006;9.060;2024-03-02T07:00:27;5.80;1.00
648;DHT22;75315;49.006;9.060;2024-03-02T07:02:55;5.80;42.60
648;DHT22;75315;49.006;9.060;2024-03-02T07:05:22;5.70;1.00
648;DHT22;75315;49.006;9.060;2024-03-02T07:07:49;5.90;40.50
648;DHT22;75315;49.006;9.060;2024-03-02T07:10:17;6.10;1.00
648;DHT22;75315;49.006;9.060;2024-03-02T07:12:44;6.20;1.00
648;DHT22;75315;49.006;9.060;2024-03-02T07:15:12;6.00;99.90
648;DHT22;75315;49.006;9.060;2024-03-02T07:17:56;6.10;99.90
648;DHT22;75315;49.006;9.060;2024-03-02T07:20:23;6.30;99.90
648;DHT22;75315;49.006;9.060;2024-03-02T07:22:51;6.40;1.00
648;DHT22;75315;49.006;9.060;2024-03-02T07:25:18;6.70;13.10
648;DHT22;75315;49.006;9.060;2024-03-02T07:27:49;6.90;99.90
648;DHT22;75315;49.006;9.060;2024-03-02T07:30:16;7.00;99.90
648;DHT22;75315;49.006;9.060;2024-03-02T07:32:43;7.00;67.40
648;DHT22;75315;49.006;9.060;2024-03-02T07:35:13;6.80;86.00
648;DHT22;75315;49.006;9.060;2024-03-02T07:37:42;6.70;99.90
648;DHT22;75315;49.006;9.060;2024-03-02T07:40:10;6.60;99.90
648;DHT22;75315;49.006;9.060;2024-03-02T07:42:39;6.50;99.90
648;DHT22;75315;49.006;9.060;2024-03-02T07:45:07;6.50;1.00
648;DHT22;75315;49.006;9.060;2024-03-02T07:47:35;6.50;99.90
648;DHT22;75315;49.006;9.060;2024-03-02T07:50:03;6.60;99.90
648;DHT22;75315;49.006;9.060;2024-03-02T07:52:33;6.50;99.90
648;DHT22;75315;49.006;9.060;2024-03-02T07:55:00;6.50;99.90
648;DHT22;75315;49.006;9.060;2024-03-02T07:57:28;6.40;99.90
648;DHT22;75315;49.006;9.060;2024-03-02T07:59:55;6.50;99.90
648;DHT22;75315;49.006;9.060;2024-03-02T08:02:23;6.60;99.90
648;DHT22;75315;49.006;9.060;2024-03-02T08:04:50;6.60;99.90
648;DHT22;75315;49.006;9.060;2024-03-02T08:07:17;6.60;99.90
648;DHT22;75315;49.006;9.060;2024-03-02T08:09:45;6.70;99.90
648;DHT22;75315;49.006;9.060;2024-03-02T08:12:13;6.70;99.90
648;DHT22;75315;49.006;9.060;2024-03-02T08:14:40;6.60;99.90
648;DHT22;75315;49.006;9.060;2024-03-02T08:17:07;6.60;99.90
648;DHT22;75315;49.006;9.060;2024-03-02T08:19:37;6.60;99.90
648;DHT22;75315;49.006;9.060;2024-03-02T08:22:05;6.70;99.90
648;DHT22;75315;49.006;9.060;2024-03-02T08:24:32;6.80;99.90
648;DHT22;75315;49.006;9.060;2024-03-02T08:27:00;6.90;11.00
648;DHT22;75315;49.006;9.060;2024-03-02T08:29:28;7.30;1.00
648;DHT22;75315;49.006;9.060;2024-03-02T08:31:55;7.80;1.00
648;DHT22;75315;49.006;9.060;2024-03-02T08:34:23;8.00;99.90
648;DHT22;75315;49.006;9.060;2024-03-02T08:36:50;8.20;99.90
648;DHT22;75315;49.006;9.060;2024-03-02T08:39:18;8.80;99.90
648;DHT22;75315;49.006;9.060;2024-03-02T08:41:47;9.30;99.90
648;DHT22;75315;49.006;9.060;2024-03-02T08:44:15;9.60;99.90
648;DHT22;75315;49.006;9.060;2024-03-02T08:46:43;9.90;39.00
648;DHT22;75315;49.006;9.060;2024-03-02T08:49:11;10.10;32.50
648;DHT22;75315;49.006;9.060;2024-03-02T08:51:38;10.10;1.00
648;DHT22;75315;49.006;9.060;2024-03-02T08:54:06;10.00;1.00
648;DHT22;75315;49.006;9.060;2024-03-02T08:56:33;10.20;1.00
648;DHT22;75315;49.006;9.060;2024-03-02T08:59:01;10.40;1.00
648;DHT22;75315;49.006;9.060;2024-03-02T09:01:28;10.70;1.00
648;DHT22;75315;49.006;9.060;2024-03-02T09:03:56;10.90;1.00
648;DHT22;75315;49.006;9.060;2024-03-02T09:06:23;11.00;1.00
648;DHT22;75315;49.006;9.060;2024-03-02T09:08:51;11.10;1.00
648;DHT22;75315;49.006;9.060;2024-03-02T09:11:19;11.10;1.00
648;DHT22;75315;49.006;9.060;2024-03-02T09:13:46;11.00;1.00
648;DHT22;75315;49.006;9.060;2024-03-02T09:16:14;10.90;1.00
648;DHT22;75315;49.006;9.060;2024-03-02T09:18:41;11.00;1.00
648;DHT22;75315;49.006;9.060;2024-03-02T09:21:09;11.10;1.00
648;DHT22;75315;49.006;9.060;2024-03-02T09:23:37;10.90;1.00
648;DHT22;75315;49.006;9.060;2024-03-02T09:26:05;10.90;1.00
648;DHT22;75315;49.006;9.060;2024-03-02T09:28:33;11.10;1.00
648;DHT22;75315;49.006;9.060;2024-03-02T09:31:01;11.10;1.00
648;DHT22;75315;49.006;9.060;2024-03-02T09:33:28;11.20;1.00
648;DHT22;75315;49.006;9.060;2024-03-02T09:35:55;10.90;1.00
648;DHT22;75315;49.006;9.060;2024-03-02T09:38:23;11.00;1.00
648;DHT22;75315;49.006;9.060;2024-03-02T09:40:50;11.00;1.00
648;DHT22;75315;49.006;9.060;2024-03-02T09:43:18;11.10;1.00
648;DHT22;75315;49.006;9.060;2024-03-02T09:45:45;11.30;1.00
648;DHT22;75315;49.006;9.060;2024-03-02T09:48:12;11.40;1.00
648;DHT22;75315;49.006;9.060;2024-03-02T09:50:40;11.70;1.00
648;DHT22;75315;49.006;9.060;2024-03-02T09:53:08;11.50;1.00
648;DHT22;75315;49.006;9.060;2024-03-02T09:55:36;11.50;1.00
648;DHT22;75315;49.006;9.060;2024-03-02T09:58:04;11.40;1.00
648;DHT22;75315;49.006;9.060;2024-03-02T10:00:31;11.60;1.00
648;DHT22;75315;49.006;9.060;2024-03-02T10:02:58;11.80;1.00
648;DHT22;75315;49.006;9.060;2024-03-02T10:05:27;11.50;1.00
648;DHT22;75315;49.006;9.060;2024-03-02T10:08:00;11.70;1.00
648;DHT22;75315;49.006;9.060;2024-03-02T10:10:36;11.80;1.00
648;DHT22;75315;49.006;9.060;2024-03-02T10:13:08;12.00;1.00
648;DHT22;75315;49.006;9.060;2024-03-02T10:15:37;12.00;1.00
648;DHT22;75315;49.006;9.060;2024-03-02T10:18:11;12.10;1.00
648;DHT22;75315;49.006;9.060;2024-03-02T10:20:40;11.90;1.00
648;DHT22;75315;49.006;9.060;2024-03-02T10:23:17;12.10;1.00
648;DHT22;75315;49.006;9.060;2024-03-02T10:25:44;12.20;1.00
648;DHT22;75315;49.006;9.060;2024-03-02T10:28:24;12.50;1.00
648;DHT22;75315;49.006;9.060;2024-03-02T10:30:52;12.50;1.00
648;DHT22;75315;49.006;9.060;2024-03-02T10:33:20;12.30;1.00
648;DHT22;75315;49.006;9.060;2024-03-02T10:35:49;12.10;1.00
648;DHT22;75315;49.006;9.060;2024-03-02T10:38:17;12.30;1.00
648;DHT22;75315;49.006;9.060;2024-03-02T10:40:48;12.40;1.00
648;DHT22;75315;49.006;9.060;2024-03-02T10:43:17;12.50;1.00
648;DHT22;75315;49.006;9.060;2024-03-02T10:45:49;12.50;1.00
648;DHT22;75315;49.006;9.060;2024-03-02T10:48:16;12.40;1.00
648;DHT22;75315;49.006;9.060;2024-03-02T10:50:44;12.40;1.00
648;DHT22;75315;49.006;9.060;2024-03-02T10:53:12;12.50;1.00
648;DHT22;75315;49.006;9.060;2024-03-02T10:55:40;12.60;1.00
648;DHT22;75315;49.006;9.060;2024-03-02T10:58:12;12.70;1.00
648;DHT22;75315;49.006;9.060;2024-03-02T11:00:41;12.80;1.00
648;DHT22;75315;49.006;9.060;2024-03-02T11:03:10;12.80;1.00
648;DHT22;75315;49.006;9.060;2024-03-02T11:05:40;12.90;1.00
648;DHT22;75315;49.006;9.060;2024-03-02T11:08:17;13.00;1.00
648;DHT22;75315;49.006;9.060;2024-03-02T11:10:58;13.20;1.00
648;DHT22;75315;49.006;9.060;2024-03-02T11:13:31;13.20;1.00
648;DHT22;75315;49.006;9.060;2024-03-02T11:16:12;13.80;1.00
648;DHT22;75315;49.006;9.060;2024-03-02T11:18:44;13.90;1.00
648;DHT22;75315;49.006;9.060;2024-03-02T11:21:12;13.90;1.00
648;DHT22;75315;49.006;9.060;2024-03-02T11:23:40;13.70;1.00
648;DHT22;75315;49.006;9.060;2024-03-02T11:26:21;13.80;1.00
648;DHT22;75315;49.006;9.060;2024-03-02T11:28:49;14.00;1.00
648;DHT22;75315;49.006;9.060;2024-03-02T11:31:16;14.30;1.00
648;DHT22;75315;49.006;9.060;2024-03-02T11:33:44;14.40;1.00
648;DHT22;75315;49.006;9.060;2024-03-02T11:36:11;14.40;1.00
648;DHT22;75315;49.006;9.060;2024-03-02T11:38:43;14.60;1.00
648;DHT22;75315;49.006;9.060;2024-03-02T11:41:12;14.80;1.00
648;DHT22;75315;49.006;9.060;2024-03-02T11:43:42;14.90;1.00
648;DHT22;75315;49.006;9.060;2024-03-02T11:46:11;15.00;1.00
648;DHT22;75315;49.006;9.060;2024-03-02T11:48:40;15.10;1.00
648;DHT22;75315;49.006;9.060;2024-03-02T11:51:07;15.10;1.00
648;DHT22;75315;49.006;9.060;2024-03-02T11:53:38;14.80;1.00
648;DHT22;75315;49.006;9.060;2024-03-02T11:56:06;15.10;1.00
648;DHT22;75315;49.006;9.060;2024-03-02T11:58:37;15.20;1.00
648;DHT22;75315;49.006;9.060;2024-03-02T12:01:08;15.20;1.00
648;DHT22;75315;49.006;9.060;2024-03-02T12:03:36;15.20;1.00
648;DHT22;75315;49.006;9.060;2024-03-02T12:06:05;15.30;1.00
648;DHT22;75315;49.006;9.060;2024-03-02T12:08:33;15.20;1.00
648;DHT22;75315;49.006;9.060;2024-03-02T12:11:01;15.30;1.00
648;DHT22;75315;49.006;9.060;2024-03-02T12:13:31;15.20;1.00
648;DHT22;75315;49.006;9.060;2024-03-02T12:15:59;15.40;1.00
648;DHT22;75315;49.006;9.060;2024-03-02T12:18:26;15.30;1.00
648;DHT22;75315;49.006;9.060;2024-03-02T12:20:54;15.60;1.00
648;DHT22;75315;49.006;9.060;2024-03-02T12:23:26;15.80;1.00
648;DHT22;75315;49.006;9.060;2024-03-02T12:25:54;15.50;1.00
648;DHT22;75315;49.006;9.060;2024-03-02T12:28:22;15.30;1.00
648;DHT22;75315;49.006;9.060;2024-03-02T12:30:49;15.30;1.00
648;DHT22;75315;49.006;9.060;2024-03-02T12:33:17;15.00;1.00
648;DHT22;75315;49.006;9.060;2024-03-02T12:35:45;15.10;1.00
648;DHT22;75315;49.006;9.060;2024-03-02T12:38:12;15.10;1.00
648;DHT22;75315;49.006;9.060;2024-03-02T12:40:40;15.30;1.00
648;DHT22;75315;49.006;9.060;2024-03-02T12:43:08;15.50;1.00
648;DHT22;75315;49.006;9.060;2024-03-02T12:45:36;15.60;1.00
648;DHT22;75315;49.006;9.060;2024-03-02T12:48:04;15.50;1.00
648;DHT22;75315;49.006;9.060;2024-03-02T12:50:34;15.80;1.00
648;DHT22;75315;49.006;9.060;2024-03-02T12:53:01;15.80;1.00
648;DHT22;75315;49.006;9.060;2024-03-02T12:55:29;15.80;1.00
648;DHT22;75315;49.006;9.060;2024-03-02T12:57:57;15.70;1.00
648;DHT22;75315;49.006;9.060;2024-03-02T13:00:26;15.70;1.00
648;DHT22;75315;49.006;9.060;2024-03-02T13:02:54;15.90;1.00
648;DHT22;75315;49.006;9.060;2024-03-02T13:05:31;15.90;1.00
648;DHT22;75315;49.006;9.060;2024-03-02T13:07:59;16.10;1.00
648;DHT22;75315;49.006;9.060;2024-03-02T13:10:27;16.00;1.00
648;DHT22;75315;49.006;9.060;2024-03-02T13:12:56;16.10;1.00
648;DHT22;75315;49.006;9.060;2024-03-02T13:15:26;16.10;1.00
648;DHT22;75315;49.006;9.060;2024-03-02T13:17:54;16.10;1.00
648;DHT22;75315;49.006;9.060;2024-03-02T13:20:30;16.20;1.00
648;DHT22;75315;49.006;9.060;2024-03-02T13:22:59;16.40;1.00
648;DHT22;75315;49.006;9.060;2024-03-02T13:25:26;16.40;1.00
648;DHT22;75315;49.006;9.060;2024-03-02T13:27:57;16.30;1.00
648;DHT22;75315;49.006;9.060;2024-03-02T13:30:24;16.20;1.00
648;DHT22;75315;49.006;9.060;2024-03-02T13:32:52;15.90;1.00
648;DHT22;75315;49.006;9.060;2024-03-02T13:35:19;16.20;1.00
648;DHT22;75315;49.006;9.060;2024-03-02T13:37:47;16.20;1.00
648;DHT22;75315;49.006;9.060;2024-03-02T13:40:14;16.30;1.00
648;DHT22;75315;49.006;9.060;2024-03-02T13:42:45;16.20;1.00
648;DHT22;75315;49.006;9.060;2024-03-02T13:45:13;16.40;1.00
648;DHT22;75315;49.006;9.060;2024-03-02T13:47:41;16.50;1.00
648;DHT22;75315;49.006;9.060;2024-03-02T13:50:08;16.40;1.00
648;DHT22;75315;49.006;9.060;2024-03-02T13:52:36;16.30;1.00
648;DHT22;75315;49.006;9.060;2024-03-02T13:55:03;16.50;1.00
648;DHT22;75315;49.006;9.060;2024-03-02T13:57:31;16.60;1.00
648;DHT22;75315;49.006;9.060;2024-03-02T13:59:58;16.50;1.00
648;DHT22;75315;49.006;9.060;2024-03-02T14:02:26;16.80;1.00
648;DHT22;75315;49.006;9.060;2024-03-02T14:04:53;16.70;1.00
648;DHT22;75315;49.006;9.060;2024-03-02T14:07:20;16.80;1.00
648;DHT22;75315;49.006;9.060;2024-03-02T14:09:48;16.80;1.00
648;DHT22;75315;49.006;9.060;2024-03-02T14:12:15;16.80;1.00
648;DHT22;75315;49.006;9.060;2024-03-02T14:14:42;16.70;1.00
648;DHT22;75315;49.006;9.060;2024-03-02T14:17:10;16.70;1.00
648;DHT22;75315;49.006;9.060;2024-03-02T14:19:42;16.60;1.00
648;DHT22;75315;49.006;9.060;2024-03-02T14:22:09;16.60;1.00
648;DHT22;75315;49.006;9.060;2024-03-02T14:24:37;16.60;1.00
648;DHT22;75315;49.006;9.060;2024-03-02T14:27:04;16.60;1.00
648;DHT22;75315;49.006;9.060;2024-03-02T14:29:51;16.50;1.00
648;DHT22;75315;49.006;9.060;2024-03-02T14:32:18;16.30;1.00
648;DHT22;75315;49.006;9.060;2024-03-02T14:34:46;16.30;1.00
648;DHT22;75315;49.006;9.060;2024-03-02T14:37:15;16.20;1.00
648;DHT22;75315;49.006;9.060;2024-03-02T14:39:42;16.10;1.00
648;DHT22;75315;49.006;9.060;2024-03-02T14:42:10;16.10;1.00
648;DHT22;75315;49.006;9.060;2024-03-02T14:44:37;16.20;1.00
648;DHT22;75315;49.006;9.060;2024-03-02T14:47:05;16.40;1.00
648;DHT22;75315;49.006;9.060;2024-03-02T14:49:34;16.40;1.00
648;DHT22;75315;49.006;9.060;2024-03-02T14:52:04;16.40;1.00
648;DHT22;75315;49.006;9.060;2024-03-02T14:54:32;16.50;1.00
648;DHT22;75315;49.006;9.060;2024-03-02T14:56:59;16.60;1.00
648;DHT22;75315;49.006;9.060;2024-03-02T14:59:26;16.60;1.00
648;DHT22;75315;49.006;9.060;2024-03-02T15:01:56;16.50;1.00
648;DHT22;75315;49.006;9.060;2024-03-02T15:04:23;16.50;1.00
648;DHT22;75315;49.006;9.060;2024-03-02T15:06:51;16.40;1.00
648;DHT22;75315;49.006;9.060;2024-03-02T15:09:18;16.50;1.00
648;DHT22;75315;49.006;9.060;2024-03-02T15:11:46;16.70;1.00
648;DHT22;75315;49.006;9.060;2024-03-02T15:14:14;16.70;1.00
648;DHT22;75315;49.006;9.060;2024-03-02T15:16:42;16.60;1.00
648;DHT22;75315;49.006;9.060;2024-03-02T15:19:09;16.60;1.00
648;DHT22;75315;49.006;9.060;2024-03-02T15:21:37;16.60;1.00
648;DHT22;75315;49.006;9.060;2024-03-02T15:24:05;16.50;1.00
648;DHT22;75315;49.006;9.060;2024-03-02T15:26:32;16.40;1.00
648;DHT22;75315;49.006;9.060;2024-03-02T15:28:59;16.40;1.00
648;DHT22;75315;49.006;9.060;2024-03-02T15:31:27;16.30;1.00
648;DHT22;75315;49.006;9.060;2024-03-02T15:33:54;16.30;1.00
648;DHT22;75315;49.006;9.060;2024-03-02T15:36:24;16.20;1.00
648;DHT22;75315;49.006;9.060;2024-03-02T15:38:52;15.90;1.00
648;DHT22;75315;49.006;9.060;2024-03-02T15:41:19;15.70;1.00
648;DHT22;75315;49.006;9.060;2024-03-02T15:43:46;15.50;1.00
648;DHT22;75315;49.006;9.060;2024-03-02T15:46:14;15.50;1.00
648;DHT22;75315;49.006;9.060;2024-03-02T15:48:42;15.30;1.00
648;DHT22;75315;49.006;9.060;2024-03-02T15:51:09;15.20;1.00
648;DHT22;75315;49.006;9.060;2024-03-02T15:53:37;15.00;1.00
648;DHT22;75315;49.006;9.060;2024-03-02T15:56:04;14.90;1.00
648;DHT22;75315;49.006;9.060;2024-03-02T15:58:36;14.90;1.00
648;DHT22;75315;49.006;9.060;2024-03-02T16:01:04;14.80;1.00
648;DHT22;75315;49.006;9.060;2024-03-02T16:03:32;14.60;1.00
648;DHT22;75315;49.006;9.060;2024-03-02T16:06:00;14.50;1.00
648;DHT22;75315;49.006;9.060;2024-03-02T16:08:27;14.40;1.00
648;DHT22;75315;49.006;9.060;2024-03-02T16:10:55;14.40;1.00
648;DHT22;75315;49.006;9.060;2024-03-02T16:13:23;14.30;1.00
648;DHT22;75315;49.006;9.060;2024-03-02T16:15:51;14.10;1.00
648;DHT22;75315;49.006;9.060;2024-03-02T16:18:18;14.10;1.00
648;DHT22;75315;49.006;9.060;2024-03-02T16:20:46;14.10;1.00
648;DHT22;75315;49.006;9.060;2024-03-02T16:23:14;14.00;1.00
648;DHT22;75315;49.006;9.060;2024-03-02T16:25:41;13.90;1.00
648;DHT22;75315;49.006;9.060;2024-03-02T16:28:09;13.80;1.00
648;DHT22;75315;49.006;9.060;2024-03-02T16:30:36;13.60;1.00
648;DHT22;75315;49.006;9.060;2024-03-02T16:33:04;13.50;1.00
648;DHT22;75315;49.006;9.060;2024-03-02T16:35:31;13.50;1.00